Time;durP1;ratioP1;P1;durP2;ratioP2;P2;SDS_P1;SDS_P2;PMS_P1;PMS_P2;Temp;Humidity;BMP_temperature;BMP_pressure;BME280_temperature;BME280_humidity;BME280_pressure;Samples;Min_cycle;Max_cycle;Signal;HPM_P1;HPM_P2
2022/09/03 00:00:10;;;;;;;2.83;1.20;;;;;;;21.70;36.66;100107.69;4089469;28;20055;-69
2022/09/03 00:02:19;;;;;;;3.00;1.13;;;;;;;21.60;36.66;100108.03;4097224;28;20062;-68
2022/09/03 00:04:28;;;;;;;1.17;1.00;;;;;;;21.62;36.92;100107.97;4093749;28;20090;-68
2022/09/03 00:06:37;;;;;;;2.10;1.10;;;;;;;21.52;37.15;100112.72;4097848;28;20050;-68
2022/09/03 00:08:46;;;;;;;1.70;1.10;;;;;;;21.52;37.31;100106.59;4097460;28;20050;-68
2022/09/03 00:10:54;;;;;;;3.92;1.10;;;;;;;21.54;37.06;100105.63;4127877;28;20137;-68
2022/09/03 00:13:03;;;;;;;2.58;1.30;;;;;;;21.56;37.10;100105.56;4097179;28;20043;-68
2022/09/03 00:15:11;;;;;;;3.72;1.20;;;;;;;21.56;37.08;100109.06;4096494;28;20043;-67
2022/09/03 00:17:17;;;;;;;2.30;1.30;;;;;;;21.51;37.51;100105.75;4091737;28;20043;-67
2022/09/03 00:19:24;;;;;;;2.13;0.98;;;;;;;21.50;37.42;100105.75;4094913;28;20501;-67
2022/09/03 00:21:38;;;;;;;2.33;1.00;;;;;;;21.47;37.19;100109.38;4097735;28;20043;-68
2022/09/03 00:23:42;;;;;;;3.95;1.08;;;;;;;21.45;38.01;100111.22;4094751;28;20991;-67
2022/09/03 00:25:49;;;;;;;;;;;;;;;21.36;38.14;100111.53;4096735;28;20498;-67
2022/09/03 00:27:55;;;;;;;2.20;1.00;;;;;;;21.33;38.41;100115.16;4095443;28;19954;-68
2022/09/03 00:30:03;;;;;;;1.88;0.90;;;;;;;21.43;38.03;100111.25;4112050;28;20039;-68
2022/09/03 00:32:13;;;;;;;2.88;1.40;;;;;;;21.43;38.06;100102.47;4094703;28;20051;-68
2022/09/03 00:34:24;;;;;;;1.60;0.90;;;;;;;21.44;38.31;100097.13;4122714;28;20048;-68
2022/09/03 00:36:33;;;;;;;1.13;0.90;;;;;;;21.41;38.21;100101.69;4129097;28;20050;-68
2022/09/03 00:38:37;;;;;;;1.13;0.75;;;;;;;21.35;38.32;100109.81;4096957;28;20043;-68
2022/09/03 00:41:01;;;;;;;2.97;1.20;;;;;;;21.42;38.52;100109.56;4097700;28;20441;-67
2022/09/03 00:43:15;;;;;;;4.43;1.20;;;;;;;21.47;38.89;100109.38;4098403;28;20044;-68
2022/09/03 00:45:28;;;;;;;2.65;1.10;;;;;;;21.60;38.11;100115.97;4096678;28;20066;-67
2022/09/03 00:47:41;;;;;;;1.30;1.00;;;;;;;21.42;39.13;100114.84;4127589;28;20607;-68
2022/09/03 00:49:57;;;;;;;3.92;1.23;;;;;;;21.46;38.89;100110.28;4095901;28;20452;-68
2022/09/03 00:52:12;;;;;;;2.90;0.90;;;;;;;21.42;39.85;100106.91;4091892;29;20050;-68
2022/09/03 00:54:25;;;;;;;2.75;1.10;;;;;;;21.44;39.57;100098.91;4121312;28;20098;-68
2022/09/03 00:56:42;;;;;;;1.20;1.10;;;;;;;21.41;39.17;100099.88;4094504;28;20498;-67
2022/09/03 00:58:58;;;;;;;1.65;1.00;;;;;;;21.37;40.19;100095.63;4094255;28;20051;-68
2022/09/03 01:01:10;;;;;;;3.20;1.00;;;;;;;21.32;40.09;100102.00;4092020;28;20083;-67
2022/09/03 01:03:24;;;;;;;3.10;1.20;;;;;;;21.32;39.38;100102.00;4097045;29;20031;-68
2022/09/03 01:05:40;;;;;;;3.08;1.10;;;;;;;21.32;39.03;100100.22;4096364;28;20090;-68
2022/09/03 01:07:49;;;;;;;2.03;1.20;;;;;;;21.39;39.34;100100.84;4098454;28;20043;-67
2022/09/03 01:10:03;;;;;;;1.50;1.20;;;;;;;21.40;39.45;100105.22;4096980;28;20051;-67
2022/09/03 01:12:13;;;;;;;4.47;1.20;;;;;;;21.44;39.46;100102.41;4099327;28;20065;-67
2022/09/03 01:14:29;;;;;;;3.47;1.25;;;;;;;21.43;39.32;100102.47;4097260;28;20070;-67
2022/09/03 01:16:38;;;;;;;2.15;1.20;;;;;;;21.39;39.61;100111.44;4113546;28;20053;-68
2022/09/03 01:18:51;;;;;;;2.70;1.15;;;;;;;21.34;40.07;100105.47;4099816;28;20544;-68
2022/09/03 01:21:13;;;;;;;2.10;1.02;;;;;;;21.28;39.58;100103.91;4094561;28;20039;-68
2022/09/03 01:23:38;;;;;;;1.98;1.08;;;;;;;21.24;39.76;100104.91;4111381;28;20513;-68
2022/09/03 01:26:03;;;;;;;3.05;1.17;;;;;;;21.30;39.59;100106.47;4099111;28;20513;-67
2022/09/03 01:28:31;;;;;;;2.15;1.10;;;;;;;21.20;39.83;100111.22;4098842;29;20074;-67
2022/09/03 01:30:40;;;;;;;1.63;1.00;;;;;;;21.14;40.45;100106.16;4096875;28;20118;-68
2022/09/03 01:32:48;;;;;;;4.38;1.40;;;;;;;21.13;40.27;100110.59;4100167;28;20098;-68
2022/09/03 01:34:57;;;;;;;3.03;0.95;;;;;;;21.16;40.29;100114.88;4098205;28;20429;-68
2022/09/03 01:37:14;;;;;;;2.42;1.23;;;;;;;21.18;40.67;100108.63;4098134;28;20043;-67
2022/09/03 01:39:26;;;;;;;2.33;1.02;;;;;;;21.19;40.34;100110.38;4099015;28;20051;-68
2022/09/03 01:44:19;;;;;;;3.13;1.00;;;;;;;21.05;40.98;100110.84;4099268;28;20098;-68
2022/09/03 01:46:26;;;;;;;1.73;1.00;;;;;;;21.06;41.71;100109.09;4098888;28;20035;-68
2022/09/03 01:48:42;;;;;;;3.67;0.98;;;;;;;21.14;41.54;100106.16;4100052;28;20126;-68
2022/09/03 01:50:53;;;;;;;1.20;1.10;;;;;;;21.14;41.82;100107.00;4100291;28;20047;-67
2022/09/03 01:53:04;;;;;;;3.70;1.20;;;;;;;21.06;41.46;100114.38;4099950;28;20051;-67
2022/09/03 01:55:24;;;;;;;2.53;1.30;;;;;;;21.06;41.87;100109.94;4099660;28;20054;-67
2022/09/03 01:57:46;;;;;;;2.80;1.30;;;;;;;21.04;41.43;100110.91;4083309;29;20047;-67
2022/09/03 01:59:58;;;;;;;2.88;1.20;;;;;;;21.20;40.22;100106.81;4098203;28;20086;-68
2022/09/03 02:02:07;;;;;;;3.20;1.10;;;;;;;21.06;40.79;100102.00;4097775;28;20541;-68
2022/09/03 02:04:19;;;;;;;0.80;0.80;;;;;;;21.00;40.90;100111.94;4097830;28;20050;-68
2022/09/03 02:06:22;;;;;;;1.02;0.80;;;;;;;20.94;41.54;100115.66;4095439;28;20045;-68
2022/09/03 02:08:25;;;;;;;1.23;0.90;;;;;;;20.91;41.42;100121.91;4130594;28;20042;-68
2022/09/03 02:10:32;;;;;;;2.05;0.93;;;;;;;21.01;41.39;100119.81;4097945;28;20528;-68
2022/09/03 02:12:38;;;;;;;2.15;1.00;;;;;;;20.96;41.38;100113.81;4098717;28;20035;-68
2022/09/03 02:14:41;;;;;;;2.17;0.98;;;;;;;20.93;41.28;100120.06;4107079;28;20043;-68
2022/09/03 02:16:45;;;;;;;1.77;1.10;;;;;;;20.97;41.14;100122.59;4129884;28;20069;-68
2022/09/03 02:18:52;;;;;;;2.95;1.00;;;;;;;20.95;40.93;100121.81;4096240;28;20051;-68
2022/09/03 02:20:55;;;;;;;2.25;1.23;;;;;;;20.88;41.19;100132.59;4076365;29;20047;-67
2022/09/03 02:22:59;;;;;;;2.55;0.90;;;;;;;20.86;41.04;100134.41;4098909;28;20111;-68
2022/09/03 02:25:02;;;;;;;1.77;1.42;;;;;;;20.87;40.91;100130.84;4097187;28;20043;-68
2022/09/03 02:27:05;;;;;;;0.95;0.90;;;;;;;20.87;40.79;100133.50;4097513;28;20082;-68
2022/09/03 02:29:07;;;;;;;1.40;1.00;;;;;;;20.85;41.09;100131.81;4111893;28;20065;-68
2022/09/03 02:31:10;;;;;;;3.15;0.98;;;;;;;20.76;40.82;100130.34;4098611;28;20042;-67
2022/09/03 02:33:15;;;;;;;2.22;1.08;;;;;;;20.76;41.11;100127.69;4130816;28;20042;-68
2022/09/03 02:35:18;;;;;;;3.78;1.13;;;;;;;20.80;41.20;100129.31;4096983;28;20473;-67
2022/09/03 02:37:22;;;;;;;1.58;1.05;;;;;;;20.83;41.17;100131.84;4128224;28;20510;-68
2022/09/03 02:39:27;;;;;;;1.17;0.73;;;;;;;20.81;41.22;100131.06;4094494;28;20434;-68
2022/09/03 02:41:31;;;;;;;3.10;1.02;;;;;;;20.85;41.47;100130.06;4096339;28;20334;-68
2022/09/03 02:43:39;;;;;;;2.15;0.90;;;;;;;20.88;41.60;100129.06;4098184;29;20055;-68
2022/09/03 02:45:47;;;;;;;2.13;1.33;;;;;;;20.85;41.41;100126.53;4113291;28;20500;-68
2022/09/03 02:47:54;;;;;;;2.30;1.10;;;;;;;20.78;41.28;100120.59;4112158;28;20077;-68
2022/09/03 02:49:58;;;;;;;2.08;1.00;;;;;;;20.73;41.40;100122.53;4098350;28;20047;-68
2022/09/03 02:52:05;;;;;;;2.63;1.10;;;;;;;20.67;41.50;100128.00;4097449;28;20047;-68
2022/09/03 02:54:09;;;;;;;1.70;0.90;;;;;;;20.67;42.18;100122.72;4095139;28;20270;-68
2022/09/03 02:56:12;;;;;;;1.60;1.10;;;;;;;20.67;41.94;100122.72;4094964;28;20031;-68
2022/09/03 02:58:15;;;;;;;2.95;1.45;;;;;;;20.71;41.43;100114.66;4094308;28;20548;-68
2022/09/03 03:00:18;;;;;;;1.13;0.88;;;;;;;20.65;41.31;100109.53;4099530;29;20060;-68
2022/09/03 03:02:21;;;;;;;2.50;0.90;;;;;;;20.63;41.56;100110.50;4099403;28;20039;-68
2022/09/03 03:04:24;;;;;;;4.53;0.98;;;;;;;20.60;42.14;100115.88;4097271;28;20043;-68
2022/09/03 03:06:28;;;;;;;1.35;0.98;;;;;;;20.61;42.42;100122.91;4094308;28;20035;-68
2022/09/03 03:08:33;;;;;;;2.35;1.10;;;;;;;20.56;42.31;100125.69;4098997;28;20043;-68
2022/09/03 03:10:37;;;;;;;1.77;1.10;;;;;;;20.60;42.08;100114.09;4097860;28;20039;-68
2022/09/03 03:12:39;;;;;;;1.80;1.20;;;;;;;20.60;42.01;100113.25;4098513;28;20532;-68
2022/09/03 03:14:42;;;;;;;1.05;0.95;;;;;;;20.65;41.70;100119.25;4098388;28;20055;-68
2022/09/03 03:16:45;;;;;;;1.88;1.20;;;;;;;20.56;41.88;100116.00;4097897;28;20035;-68
2022/09/03 03:18:49;;;;;;;2.85;0.90;;;;;;;20.51;41.91;100112.63;4094962;28;20080;-68
2022/09/03 03:20:53;;;;;;;1.83;1.10;;;;;;;20.51;41.73;100112.63;4096653;28;20047;-68
2022/09/03 03:22:57;;;;;;;3.20;1.45;;;;;;;20.50;41.58;100113.56;4113380;28;20125;-68
2022/09/03 03:25:00;;;;;;;2.83;1.00;;;;;;;20.40;41.99;100104.22;4096423;28;20505;-68
2022/09/03 03:27:06;;;;;;;2.97;1.20;;;;;;;20.42;42.05;100107.66;4097601;28;20458;-68
2022/09/03 03:29:15;;;;;;;2.53;1.17;;;;;;;20.39;41.83;100103.31;4098271;29;20043;-68
2022/09/03 03:31:21;;;;;;;4.47;1.27;;;;;;;20.43;41.89;100106.75;4099016;28;20053;-68
2022/09/03 03:33:24;;;;;;;3.53;1.25;;;;;;;20.42;41.95;100107.66;4097734;28;20142;-68
2022/09/03 03:35:27;;;;;;;1.38;1.02;;;;;;;20.39;41.86;100102.47;4098308;28;20043;-68
2022/09/03 03:37:30;;;;;;;5.00;1.17;;;;;;;20.38;42.10;100106.00;4098327;28;20453;-67
2022/09/03 03:39:34;;;;;;;1.75;1.00;;;;;;;20.35;42.00;100104.31;4099404;29;20090;-68
2022/09/03 03:41:37;;;;;;;0.80;0.80;;;;;;;20.31;42.04;100109.75;4097861;28;20125;-68
2022/09/03 03:43:40;;;;;;;2.35;1.10;;;;;;;20.31;42.34;100109.75;4098237;29;20035;-69
2022/09/03 03:45:42;;;;;;;1.30;0.98;;;;;;;20.30;42.70;100114.19;4129206;28;20045;-68
2022/09/03 03:47:45;;;;;;;3.53;1.13;;;;;;;20.31;42.64;100110.66;4097175;28;20410;-68
2022/09/03 03:49:48;;;;;;;3.45;1.23;;;;;;;20.35;42.62;100114.03;4098405;28;20134;-68
2022/09/03 03:51:51;;;;;;;2.80;1.10;;;;;;;20.29;42.95;100112.44;4098115;28;20043;-68
2022/09/03 03:53:56;;;;;;;4.78;1.25;;;;;;;20.28;43.16;100108.09;4098421;28;20039;-68
2022/09/03 03:56:08;;;;;;;3.08;0.80;;;;;;;20.22;43.35;100117.06;4098230;28;20036;-68
2022/09/03 03:58:11;;;;;;;9.40;1.13;;;;;;;20.22;43.75;100117.06;4096170;28;20036;-68
2022/09/03 04:00:15;;;;;;;1.80;1.10;;;;;;;20.26;43.33;100111.69;4124621;28;20038;-68
2022/09/03 04:02:18;;;;;;;2.83;1.08;;;;;;;20.25;43.45;100121.38;4128913;28;20042;-67
2022/09/03 04:04:21;;;;;;;2.53;1.20;;;;;;;20.26;43.03;100119.63;4098187;29;20128;-68
2022/09/03 04:06:24;;;;;;;1.23;1.10;;;;;;;20.28;43.04;100125.69;4095689;28;20083;-68
2022/09/03 04:08:27;;;;;;;2.10;1.00;;;;;;;20.29;43.23;100120.38;4097915;28;20066;-67
2022/09/03 04:10:30;;;;;;;2.55;1.50;;;;;;;20.32;43.30;100122.06;4094693;28;20035;-68
2022/09/03 04:12:34;;;;;;;2.53;1.27;;;;;;;20.33;43.23;100113.22;4095890;28;20049;-67
2022/09/03 04:14:37;;;;;;;2.30;1.00;;;;;;;20.31;43.86;100120.31;4097920;28;20508;-68
2022/09/03 04:16:40;;;;;;;3.15;1.27;;;;;;;20.34;43.87;100114.94;4096927;28;20046;-67
2022/09/03 04:18:44;;;;;;;1.75;0.95;;;;;;;20.35;43.74;100116.69;4129603;28;20084;-68
2022/09/03 04:20:50;;;;;;;3.17;1.37;;;;;;;20.32;43.52;100111.50;4097760;28;20039;-67
2022/09/03 04:22:52;;;;;;;3.90;1.30;;;;;;;20.32;43.48;100122.91;4094258;28;20047;-67
2022/09/03 04:24:59;;;;;;;1.58;1.10;;;;;;;20.32;43.74;100124.69;4093577;28;20263;-68
2022/09/03 04:27:02;;;;;;;2.67;1.10;;;;;;;20.28;44.04;100123.06;4094800;28;20465;-68
2022/09/03 04:29:09;;;;;;;1.83;1.08;;;;;;;20.24;44.13;100132.88;4095953;28;20081;-68
2022/09/03 04:31:14;;;;;;;1.92;1.10;;;;;;;20.21;44.28;100131.19;4097173;28;20049;-68
2022/09/03 04:33:16;;;;;;;2.03;1.15;;;;;;;20.22;44.35;100143.47;4091761;28;20062;-68
2022/09/03 04:35:19;;;;;;;3.17;0.98;;;;;;;20.19;44.75;100140.94;4093035;28;20130;-68
2022/09/03 04:37:22;;;;;;;3.72;1.30;;;;;;;20.29;44.92;100140.63;4125714;28;20041;-67
2022/09/03 04:39:26;;;;;;;2.05;1.10;;;;;;;20.26;45.07;100138.09;4097811;28;20043;-67
2022/09/03 04:41:30;;;;;;;1.77;0.93;;;;;;;20.19;45.89;100142.69;4080883;29;20080;-67
2022/09/03 04:43:34;;;;;;;1.65;0.95;;;;;;;20.15;46.86;100144.56;4095377;28;20123;-67
2022/09/03 04:45:38;;;;;;;3.25;1.30;;;;;;;20.09;47.76;100136.81;4097362;28;20039;-67
2022/09/03 04:47:41;;;;;;;5.15;1.40;;;;;;;20.09;47.96;100142.09;4098937;28;20043;-67
2022/09/03 04:49:44;;;;;;;3.63;1.00;;;;;;;19.97;47.69;100139.84;4097833;28;20051;-68
2022/09/03 04:51:47;;;;;;;5.03;1.25;;;;;;;19.92;48.40;100141.72;4115672;28;20407;-68
2022/09/03 04:53:55;;;;;;;0.95;0.90;;;;;;;19.93;48.48;100147.00;4129728;28;20081;-67
2022/09/03 04:55:58;;;;;;;1.23;1.08;;;;;;;19.94;48.84;100143.44;4099862;28;20493;-67
2022/09/03 04:58:01;;;;;;;3.28;1.13;;;;;;;19.91;49.05;100142.66;4099881;28;20039;-67
2022/09/03 05:00:09;;;;;;;3.65;1.10;;;;;;;19.86;48.85;100148.94;4097679;28;20061;-67
2022/09/03 05:02:14;;;;;;;2.42;0.90;;;;;;;19.83;48.71;100151.66;4100706;28;20065;-67
2022/09/03 05:04:18;;;;;;;5.28;1.40;;;;;;;19.75;49.12;100158.91;4101651;28;20050;-67
2022/09/03 05:06:20;;;;;;;1.90;1.00;;;;;;;19.74;49.29;100157.16;4131406;28;20045;-68
2022/09/03 05:08:24;;;;;;;3.92;1.30;;;;;;;19.74;49.67;100161.56;4115263;28;20039;-68
2022/09/03 05:10:27;;;;;;;2.15;1.30;;;;;;;19.73;49.78;100165.13;4100837;28;20050;-68
2022/09/03 05:12:30;;;;;;;3.78;1.30;;;;;;;19.76;50.52;100160.63;4098293;28;20154;-67
2022/09/03 05:14:33;;;;;;;3.63;1.10;;;;;;;19.71;49.24;100151.97;4099617;28;20392;-67
2022/09/03 05:16:36;;;;;;;1.73;1.00;;;;;;;19.67;48.83;100156.47;4101041;28;20054;-67
2022/09/03 05:18:41;;;;;;;1.10;0.85;;;;;;;19.68;49.87;100162.63;4098430;28;20046;-67
2022/09/03 05:20:44;;;;;;;1.80;1.33;;;;;;;19.67;49.77;100155.63;4099836;28;20054;-67
2022/09/03 05:22:46;;;;;;;2.00;1.20;;;;;;;19.65;49.36;100167.97;4099703;28;20501;-67
2022/09/03 05:24:50;;;;;;;1.13;0.98;;;;;;;19.63;49.48;100175.94;4096935;28;20896;-67
2022/09/03 05:26:54;;;;;;;4.60;1.10;;;;;;;19.65;49.57;100170.63;4095498;28;20401;-67
2022/09/03 05:28:59;;;;;;;3.03;1.02;;;;;;;19.65;49.16;100173.25;4100001;28;20040;-67
2022/09/03 05:31:06;;;;;;;2.75;0.93;;;;;;;19.60;49.70;100169.91;4098682;28;20066;-67
2022/09/03 05:33:09;;;;;;;2.15;1.13;;;;;;;19.61;49.63;100179.50;4096727;28;20560;-67
2022/09/03 05:35:13;;;;;;;1.38;1.00;;;;;;;19.70;48.51;100166.09;4100992;28;20035;-67
2022/09/03 05:37:16;;;;;;;4.78;1.20;;;;;;;19.65;48.91;100183.78;4098471;28;20123;-68
2022/09/03 05:39:19;;;;;;;1.60;0.90;;;;;;;19.61;48.11;100176.88;4093164;28;20099;-67
2022/09/03 05:41:23;;;;;;;3.80;1.20;;;;;;;19.64;47.91;100176.78;4097511;28;20039;-67
2022/09/03 05:43:26;;;;;;;3.50;1.45;;;;;;;19.68;48.77;100188.97;4096539;28;20043;-67
2022/09/03 05:45:30;;;;;;;1.02;0.65;;;;;;;19.63;48.99;100188.25;4101735;28;20105;-67
2022/09/03 05:47:33;;;;;;;2.53;0.98;;;;;;;19.64;48.02;100196.13;4094745;28;20099;-67
2022/09/03 05:49:36;;;;;;;2.47;1.00;;;;;;;19.65;47.79;100192.56;4096003;28;20545;-67
2022/09/03 05:51:41;;;;;;;1.15;1.05;;;;;;;19.66;48.18;100189.03;4096615;28;20039;-67
2022/09/03 05:53:45;;;;;;;1.17;1.08;;;;;;;19.72;48.48;100193.28;4097328;28;20054;-67
2022/09/03 05:55:55;;;;;;;2.92;1.13;;;;;;;19.67;47.97;100197.81;4093374;28;20042;-67
2022/09/03 05:57:58;;;;;;;2.95;1.00;;;;;;;19.69;47.75;100194.22;4125936;28;20035;-67
2022/09/03 06:00:01;;;;;;;2.65;0.90;;;;;;;19.70;47.66;100200.38;4098956;28;20125;-66
2022/09/03 06:02:13;;;;;;;2.40;0.90;;;;;;;19.73;47.78;100196.75;4100370;28;20043;-62
2022/09/03 06:04:17;;;;;;;2.80;1.42;;;;;;;20.00;48.50;100192.53;4098733;28;20043;-64
2022/09/03 06:06:24;;;;;;;1.40;1.00;;;;;;;20.30;48.10;100193.38;4099554;28;20043;-65
2022/09/03 06:08:28;;;;;;;2.08;1.00;;;;;;;20.54;47.68;100197.03;4099188;28;20035;-65
2022/09/03 06:10:31;;;;;;;2.45;1.05;;;;;;;20.67;47.01;100204.63;4096273;28;20527;-59
2022/09/03 06:12:48;;;;;;;4.55;0.90;;;;;;;20.71;47.26;100193.91;4096554;29;20084;-62
2022/09/03 06:14:51;;;;;;;2.35;1.10;;;;;;;20.84;46.79;100198.81;4074230;28;20489;-62
2022/09/03 06:16:55;;;;;;;1.65;0.80;;;;;;;20.76;46.83;100201.66;4129685;28;20566;-62
2022/09/03 06:18:58;;;;;;;1.98;1.00;;;;;;;20.81;46.44;100199.75;4099953;28;20035;-62
2022/09/03 06:21:03;;;;;;;1.10;0.90;;;;;;;20.87;46.34;100198.69;4100960;28;20130;-62
2022/09/03 06:23:06;;;;;;;;;;;;;;;20.79;46.53;100196.28;4099376;28;20397;-63
2022/09/03 06:25:10;;;;;;;1.58;0.90;;;;;;;20.85;46.62;100198.75;4099122;29;19965;-62
2022/09/03 06:27:13;;;;;;;1.40;1.20;;;;;;;20.84;46.89;100209.38;4099056;29;20039;-58
2022/09/03 06:29:17;;;;;;;1.33;1.17;;;;;;;20.79;47.38;100213.91;4099747;28;20039;-59
2022/09/03 06:31:22;;;;;;;3.55;1.20;;;;;;;20.75;48.04;100221.94;4100139;29;20134;-59
2022/09/03 06:33:25;;;;;;;4.80;1.25;;;;;;;20.81;48.83;100226.19;4093405;28;20070;-60
2022/09/03 06:35:28;;;;;;;6.13;1.67;;;;;;;20.76;50.79;100222.81;4092429;29;20564;-60
2022/09/03 06:37:38;;;;;;;2.65;1.33;;;;;;;20.67;50.40;100220.47;4098618;28;20110;-60
2022/09/03 06:39:41;;;;;;;3.45;1.15;;;;;;;20.63;51.00;100217.00;4099544;28;20039;-60
2022/09/03 06:41:47;;;;;;;3.13;1.17;;;;;;;20.56;51.74;100221.63;4098426;28;20434;-60
2022/09/03 06:43:50;;;;;;;3.65;1.40;;;;;;;20.54;52.60;100223.44;4093001;28;20038;-60
2022/09/03 06:45:54;;;;;;;9.45;1.70;;;;;;;20.57;52.64;100218.09;4098429;29;20047;-61
2022/09/03 06:47:57;;;;;;;6.90;1.33;;;;;;;20.51;53.06;100225.31;4098358;29;20070;-60
2022/09/03 06:50:00;;;;;;;2.70;1.40;;;;;;;20.55;53.11;100235.75;4099306;28;20039;-61
2022/09/03 06:52:03;;;;;;;5.50;1.30;;;;;;;20.58;53.55;100227.72;4098390;28;20520;-60
2022/09/03 06:54:08;;;;;;;4.75;1.40;;;;;;;20.62;53.98;100238.19;4098445;28;20092;-61
2022/09/03 06:56:13;;;;;;;2.60;1.15;;;;;;;20.59;53.96;100236.53;4096097;28;20441;-61
2022/09/03 06:58:17;;;;;;;3.17;1.77;;;;;;;20.65;54.97;100235.47;4097764;28;20031;-61
2022/09/03 07:00:23;;;;;;;4.88;1.63;;;;;;;20.70;54.87;100225.66;4112376;28;20038;-61
2022/09/03 07:02:26;;;;;;;2.28;1.33;;;;;;;20.65;54.78;100235.47;4093011;28;20042;-60
2022/09/03 07:04:30;;;;;;;2.60;1.73;;;;;;;20.58;54.99;100233.00;4094645;28;20054;-61
2022/09/03 07:06:37;;;;;;;4.37;1.40;;;;;;;20.48;55.53;100226.28;4095662;29;20489;-61
2022/09/03 07:08:41;;;;;;;4.07;1.40;;;;;;;20.48;55.76;100238.63;4094685;28;20031;-61
2022/09/03 07:10:47;;;;;;;;;;;;;;;20.35;56.09;100231.06;4099145;28;20047;-60
2022/09/03 07:12:50;;;;;;;3.97;2.00;;;;;;;20.34;55.98;100242.56;4128535;28;20020;-61
2022/09/03 07:14:54;;;;;;;3.25;1.48;;;;;;;20.39;56.19;100237.13;4113386;28;20575;-60
2022/09/03 07:16:57;;;;;;;1.65;1.17;;;;;;;20.43;56.62;100243.16;4098173;28;20066;-60
2022/09/03 07:19:02;;;;;;;3.83;1.35;;;;;;;20.38;56.45;100251.22;4099787;29;20552;-62
2022/09/03 07:21:07;;;;;;;3.72;1.40;;;;;;;20.40;57.11;100252.91;4098685;28;20051;-62
2022/09/03 07:23:10;;;;;;;3.33;1.42;;;;;;;20.42;57.30;100244.94;4092645;29;20568;-61
2022/09/03 07:25:13;;;;;;;3.05;1.45;;;;;;;20.38;57.36;100252.13;4098479;29;20043;-61
2022/09/03 07:27:16;;;;;;;5.13;1.50;;;;;;;20.32;57.95;100254.06;4097223;28;20043;-61
2022/09/03 07:29:20;;;;;;;4.20;1.67;;;;;;;20.27;58.13;100261.22;4099105;28;20035;-60
2022/09/03 07:31:27;;;;;;;3.03;1.33;;;;;;;20.31;57.98;100263.75;4097352;28;20082;-60
2022/09/03 07:33:31;;;;;;;2.15;1.33;;;;;;;20.29;58.82;100262.06;4097325;28;20039;-60
2022/09/03 07:35:36;;;;;;;4.57;1.98;;;;;;;20.20;59.39;100265.84;4096956;28;20040;-60
2022/09/03 07:37:41;;;;;;;6.50;2.17;;;;;;;20.01;59.90;100255.81;4097593;28;20035;-60
2022/09/03 07:39:45;;;;;;;1.75;1.27;;;;;;;19.96;59.68;100259.47;4129196;28;20388;-60
2022/09/03 07:41:49;;;;;;;3.78;2.08;;;;;;;19.86;60.03;100254.47;4098184;28;20106;-60
2022/09/03 07:43:52;;;;;;;4.72;1.65;;;;;;;19.83;59.78;100265.09;4110688;28;20051;-61
2022/09/03 07:45:56;;;;;;;2.55;1.60;;;;;;;19.92;59.56;100256.06;4091470;29;20063;-61
2022/09/03 07:48:03;;;;;;;5.80;2.05;;;;;;;20.02;59.43;100264.59;4091102;29;20043;-67
2022/09/03 07:50:06;;;;;;;2.67;1.52;;;;;;;19.75;60.27;100259.13;4110376;28;20049;-67
2022/09/03 07:52:09;;;;;;;4.18;1.90;;;;;;;19.55;60.67;100259.66;4128221;28;20551;-66
2022/09/03 07:54:17;;;;;;;3.20;1.80;;;;;;;19.26;61.71;100263.91;4093232;28;20039;-66
2022/09/03 07:56:22;;;;;;;3.50;2.20;;;;;;;19.19;62.13;100264.97;4090574;28;20110;-66
2022/09/03 07:58:25;;;;;;;5.25;1.80;;;;;;;19.16;62.89;100254.50;4088196;28;20039;-66
2022/09/03 08:00:28;;;;;;;4.75;2.03;;;;;;;19.10;63.67;100244.09;4095550;28;20039;-66
2022/09/03 08:02:31;;;;;;;8.40;2.45;;;;;;;19.17;63.93;100240.41;4096539;28;20031;-66
2022/09/03 08:04:35;;;;;;;6.35;2.25;;;;;;;18.88;64.54;100242.00;4097516;28;20047;-66
2022/09/03 08:06:38;;;;;;;;;;;;;;;18.54;64.80;100245.34;4098606;28;20039;-67
2022/09/03 08:08:43;;;;;;;4.13;2.00;;;;;;;18.44;65.56;100244.72;4098423;28;19962;-68
2022/09/03 08:11:36;;;;;;;5.05;2.72;;;;;;;18.30;65.92;100247.63;4091199;28;20055;-67
2022/09/03 08:13:39;;;;;;;4.55;1.88;;;;;;;18.26;66.63;100250.34;4090824;28;20050;-66
2022/09/03 08:15:42;;;;;;;2.85;2.17;;;;;;;18.25;67.15;100260.03;4083263;28;20099;-66
2022/09/03 08:17:45;;;;;;;5.15;2.70;;;;;;;18.35;67.37;100254.56;4091789;28;20175;-67
2022/09/03 08:19:50;;;;;;;4.60;2.88;;;;;;;18.38;66.60;100239.56;4092948;28;20067;-64
2022/09/03 08:21:53;;;;;;;5.95;2.95;;;;;;;18.40;66.40;100235.13;4095529;28;20523;-64
2022/09/03 08:24:01;;;;;;;3.63;2.58;;;;;;;18.26;66.86;100250.34;4093249;28;20043;-64
2022/09/03 08:26:05;;;;;;;4.13;2.60;;;;;;;18.14;66.79;100251.47;4106133;28;20105;-65
2022/09/03 08:28:08;;;;;;;5.40;2.78;;;;;;;18.09;66.81;100243.69;4104032;28;20055;-64
2022/09/03 08:30:11;;;;;;;5.40;3.25;;;;;;;18.22;67.22;100236.38;4090679;28;20041;-66
2022/09/03 08:32:14;;;;;;;5.78;2.92;;;;;;;18.20;66.94;100239.97;4121701;28;20495;-65
2022/09/03 08:34:17;;;;;;;5.68;2.88;;;;;;;18.07;67.50;100250.72;4091785;28;20039;-65
2022/09/03 08:36:24;;;;;;;5.78;3.17;;;;;;;17.99;68.15;100267.56;4091775;28;20047;-66
2022/09/03 08:38:26;;;;;;;5.00;3.17;;;;;;;17.86;69.29;100282.66;4126966;28;20034;-65
2022/09/03 08:40:32;;;;;;;5.38;2.90;;;;;;;17.87;69.81;100300.19;4093612;28;20035;-65
2022/09/03 08:42:46;;;;;;;4.20;2.80;;;;;;;17.89;70.08;100309.78;4106202;28;20119;-66
2022/09/03 08:44:53;;;;;;;4.00;2.88;;;;;;;17.84;70.39;100309.00;4091292;28;20509;-65
2022/09/03 08:47:01;;;;;;;4.28;3.17;;;;;;;17.72;70.93;100315.34;4090940;28;20044;-65
2022/09/03 08:49:08;;;;;;;5.45;2.70;;;;;;;17.72;70.63;100310.09;4094788;28;20055;-64
2022/09/03 08:51:16;;;;;;;7.68;3.45;;;;;;;17.77;70.23;100321.41;4091680;28;20549;-66
2022/09/03 08:53:26;;;;;;;5.30;2.78;;;;;;;17.84;70.01;100318.66;4090845;28;20058;-66
2022/09/03 08:55:35;;;;;;;6.82;3.45;;;;;;;17.84;70.77;100322.13;4097298;28;20071;-66
2022/09/03 08:57:43;;;;;;;4.38;3.22;;;;;;;17.84;70.71;100323.91;4093142;28;20051;-66
2022/09/03 08:59:48;;;;;;;7.30;3.58;;;;;;;17.89;70.76;100314.19;4095574;28;20382;-65
2022/09/03 09:01:57;;;;;;;8.95;4.70;;;;;;;17.98;70.88;100314.03;4092833;28;20049;-65
2022/09/03 09:04:10;;;;;;;5.10;3.03;;;;;;;18.13;70.17;100313.72;4098137;29;20146;-64
2022/09/03 09:06:21;;;;;;;7.45;4.00;;;;;;;18.10;70.46;100323.47;4097760;28;20086;-64
2022/09/03 09:08:35;;;;;;;4.75;2.95;;;;;;;18.11;70.55;100328.69;4095450;28;20047;-65
2022/09/03 09:10:44;;;;;;;6.68;3.58;;;;;;;18.10;70.78;100328.72;4112085;28;20041;-65
2022/09/03 09:12:58;;;;;;;8.27;3.58;;;;;;;18.14;70.55;100331.25;4098595;28;20047;-65
2022/09/03 09:15:08;;;;;;;5.30;3.88;;;;;;;18.18;70.60;100318.03;4097841;29;20051;-65
2022/09/03 09:17:44;;;;;;;7.15;4.70;;;;;;;18.22;71.04;100312.69;4096354;28;20428;-65
2022/09/03 09:19:58;;;;;;;9.97;4.30;;;;;;;18.25;69.78;100315.28;4097635;28;20054;-65
2022/09/03 09:22:04;;;;;;;8.82;3.33;;;;;;;18.25;70.23;100310.03;4094099;28;20301;-65
2022/09/03 09:24:22;;;;;;;7.90;4.15;;;;;;;18.51;70.28;100313.00;4096954;29;20055;-66
2022/09/03 09:26:25;;;;;;;6.68;4.03;;;;;;;18.63;69.63;100315.38;4097581;28;20469;-65
2022/09/03 09:28:34;;;;;;;8.05;4.32;;;;;;;18.71;70.04;100312.59;4126839;28;20045;-65
2022/09/03 09:30:38;;;;;;;6.63;4.00;;;;;;;18.64;69.28;100309.22;4102418;28;20594;-65
2022/09/03 09:32:40;;;;;;;7.10;3.78;;;;;;;18.71;69.41;100309.97;4100392;28;20407;-66
2022/09/03 09:34:43;;;;;;;6.55;3.45;;;;;;;18.75;68.87;100320.38;4099136;28;20559;-65
2022/09/03 09:36:54;;;;;;;6.32;2.50;;;;;;;18.76;69.00;100314.22;4125369;28;20627;-66
2022/09/03 09:39:09;;;;;;;8.15;2.85;;;;;;;18.72;69.04;100317.81;4101918;28;20047;-65
2022/09/03 09:41:15;;;;;;;6.18;2.92;;;;;;;18.76;69.83;100316.88;4099441;28;20126;-66
2022/09/03 09:43:20;;;;;;;4.38;2.58;;;;;;;18.84;68.79;100317.53;4130662;28;20039;-65
2022/09/03 09:45:23;;;;;;;7.13;3.10;;;;;;;18.89;69.03;100313.97;4091530;28;20035;-65
2022/09/03 09:47:30;;;;;;;4.90;3.17;;;;;;;18.99;69.11;100315.50;4098075;28;20396;-65
2022/09/03 09:49:35;;;;;;;5.40;3.10;;;;;;;19.11;68.20;100315.19;4090929;28;20126;-65
2022/09/03 09:51:38;;;;;;;6.28;2.83;;;;;;;18.99;67.53;100321.63;4097883;28;20516;-65